createdAt,value
2017-12-08T08:08:29.000Z,21.50
2017-12-08T08:08:39.000Z,21.37
2017-12-08T08:08:49.000Z,21.27
2017-12-08T08:08:59.000Z,21.21
2017-12-08T08:09:09.000Z,21.06
2017-12-08T08:09:19.000Z,20.81
2017-12-08T08:09:29.000Z,20.63
2017-12-08T08:09:39.000Z,20.52
2017-12-08T08:09:49.000Z,20.41
2017-12-08T08:09:59.000Z,20.51
2017-12-08T08:10:09.000Z,20.51
2017-12-08T08:10:19.000Z,20.56
2017-12-08T08:10:29.000Z,20.55
2017-12-08T08:10:39.000Z,20.65
2017-12-08T08:10:49.000Z,20.55
2017-12-08T08:10:59.000Z,20.40
2017-12-08T08:11:09.000Z,20.31
2017-12-08T08:11:19.000Z,20.26
2017-12-08T08:11:29.000Z,20.31
2017-12-08T08:11:39.000Z,20.29
2017-12-08T08:11:49.000Z,20.19
2017-12-08T08:11:59.000Z,20.07
2017-12-08T08:12:09.000Z,19.99
2017-12-08T08:12:19.000Z,19.77
2017-12-08T08:12:29.000Z,19.52
2017-12-08T08:12:39.000Z,19.29
2017-12-08T08:12:49.000Z,19.27
2017-12-08T08:12:59.000Z,19.12
2017-12-08T08:13:09.000Z,19.04
2017-12-08T08:13:19.000Z,18.89
2017-12-08T08:13:29.000Z,18.75
2017-12-08T08:13:39.000Z,18.71
2017-12-08T08:13:49.000Z,18.62
2017-12-08T08:13:59.000Z,18.43
2017-12-08T08:14:09.000Z,18.56
2017-12-08T08:14:19.000Z,18.62
2017-12-08T08:14:29.000Z,18.59
2017-12-08T08:14:39.000Z,18.53
2017-12-08T08:14:49.000Z,18.58
2017-12-08T08:14:59.000Z,18.63
2017-12-08T08:15:09.000Z,18.53
2017-12-08T08:15:19.000Z,18.38
2017-12-08T08:15:29.000Z,18.35
2017-12-08T08:15:39.000Z,18.41
2017-12-08T08:15:49.000Z,18.37
2017-12-08T08:15:59.000Z,18.28
2017-12-08T08:16:09.000Z,18.18
2017-12-08T08:16:19.000Z,18.15
2017-12-08T08:16:29.000Z,17.94
2017-12-08T08:16:39.000Z,17.95
2017-12-08T08:16:49.000Z,17.97
2017-12-08T08:16:59.000Z,17.89
2017-12-08T08:17:09.000Z,17.90
2017-12-08T08:17:19.000Z,17.94
2017-12-08T08:17:29.000Z,17.87
2017-12-08T08:17:39.000Z,17.60
2017-12-08T08:17:49.000Z,17.46
2017-12-08T08:17:59.000Z,17.31
2017-12-08T08:18:09.000Z,17.20
2017-12-08T08:18:19.000Z,17.14
2017-12-08T08:18:29.000Z,17.11
2017-12-08T08:18:39.000Z,17.04
2017-12-08T08:18:49.000Z,16.90
2017-12-08T08:18:59.000Z,16.89
2017-12-08T08:19:09.000Z,16.87
2017-12-08T08:19:19.000Z,16.87
2017-12-08T08:19:29.000Z,16.64
2017-12-08T08:19:39.000Z,16.33
2017-12-08T08:19:49.000Z,16.15
2017-12-08T08:19:59.000Z,16.12
2017-12-08T08:20:09.000Z,16.20
2017-12-08T08:20:19.000Z,16.28
2017-12-08T08:20:29.000Z,16.21
2017-12-08T08:20:39.000Z,16.38
2017-12-08T08:20:49.000Z,16.38
2017-12-08T08:21:11.000Z,16.61
2017-12-08T08:21:21.000Z,16.79
2017-12-08T08:21:31.000Z,16.76
2017-12-08T08:21:41.000Z,16.84
2017-12-08T08:21:51.000Z,16.90
2017-12-08T08:22:11.000Z,17.15
2017-12-08T08:22:21.000Z,17.19
2017-12-08T08:22:31.000Z,17.30
2017-12-08T08:22:41.000Z,17.39
2017-12-08T08:22:51.000Z,17.48
2017-12-08T08:23:01.000Z,17.57
2017-12-08T08:23:11.000Z,17.68
2017-12-08T08:23:21.000Z,17.79
2017-12-08T08:23:31.000Z,17.95
2017-12-08T08:23:41.000Z,17.97
2017-12-08T08:23:51.000Z,18.03
2017-12-08T08:24:01.000Z,18.18
2017-12-08T08:24:11.000Z,18.28
2017-12-08T08:24:21.000Z,18.31
2017-12-08T08:24:31.000Z,18.52
2017-12-08T08:24:41.000Z,18.55
2017-12-08T08:24:51.000Z,18.62
2017-12-08T08:25:01.000Z,18.68
2017-12-08T08:25:11.000Z,18.84
2017-12-08T08:25:21.000Z,18.90
2017-12-08T08:25:31.000Z,18.99
2017-12-08T08:25:41.000Z,19.02
2017-12-08T08:25:51.000Z,19.15
2017-12-08T08:26:01.000Z,19.30
2017-12-08T08:26:11.000Z,19.34
2017-12-08T08:26:21.000Z,19.36
2017-12-08T08:26:31.000Z,19.51
2017-12-08T08:26:41.000Z,19.54
2017-12-08T08:26:51.000Z,19.77
2017-12-08T08:27:01.000Z,19.86
2017-12-08T08:27:11.000Z,19.86
2017-12-08T08:27:21.000Z,19.94
2017-12-08T08:27:31.000Z,20.11
2017-12-08T08:27:41.000Z,20.13
2017-12-08T08:27:51.000Z,20.25
2017-12-08T08:28:01.000Z,20.25
2017-12-08T08:28:11.000Z,20.41
2017-12-08T08:28:21.000Z,20.41
2017-12-08T08:28:31.000Z,20.65
2017-12-08T08:28:41.000Z,20.59
2017-12-08T08:28:51.000Z,20.72
2017-12-08T08:29:01.000Z,20.82
2017-12-08T08:29:11.000Z,20.90
2017-12-08T08:29:21.000Z,21.03
2017-12-08T08:29:31.000Z,21.05
2017-12-08T08:29:41.000Z,21.21
2017-12-08T08:29:51.000Z,21.29
2017-12-08T08:30:01.000Z,21.30
2017-12-08T08:30:11.000Z,21.42
2017-12-08T08:30:21.000Z,21.40
2017-12-08T08:30:31.000Z,21.50
2017-12-08T08:30:41.000Z,21.67
2017-12-08T08:30:51.000Z,21.61
2017-12-08T08:31:01.000Z,21.79
2017-12-08T08:31:11.000Z,21.77
2017-12-08T08:31:21.000Z,21.95
2017-12-08T08:31:31.000Z,21.99
2017-12-08T08:31:41.000Z,22.14
2017-12-08T08:31:51.000Z,22.08
2017-12-08T08:32:01.000Z,22.23
2017-12-08T08:32:11.000Z,22.25
2017-12-08T08:32:21.000Z,22.32
2017-12-08T08:32:31.000Z,22.36
2017-12-08T08:32:41.000Z,22.44
2017-12-08T08:32:51.000Z,22.53
2017-12-08T08:33:01.000Z,22.59
2017-12-08T08:33:11.000Z,22.65
2017-12-08T08:33:21.000Z,22.70
2017-12-08T08:33:31.000Z,22.80
2017-12-08T08:33:41.000Z,22.73
2017-12-08T08:33:51.000Z,22.85
2017-12-08T08:34:01.000Z,22.94
2017-12-08T08:34:11.000Z,22.96
2017-12-08T08:34:21.000Z,23.09
2017-12-08T08:34:31.000Z,23.09
2017-12-08T08:34:41.000Z,23.13
2017-12-08T08:34:51.000Z,23.31
2017-12-08T08:35:01.000Z,23.37
2017-12-08T08:35:11.000Z,23.37
2017-12-08T08:35:21.000Z,23.39
2017-12-08T08:35:31.000Z,23.43
2017-12-08T08:35:41.000Z,23.56
2017-12-08T08:35:51.000Z,23.61
2017-12-08T08:36:01.000Z,23.61
2017-12-08T08:36:11.000Z,23.68
2017-12-08T08:36:21.000Z,23.77
2017-12-08T08:36:31.000Z,23.80
2017-12-08T08:36:41.000Z,23.78
2017-12-08T08:36:51.000Z,23.95
2017-12-08T08:37:01.000Z,24.01
2017-12-08T08:37:11.000Z,24.01
2017-12-08T08:37:21.000Z,24.05
2017-12-08T08:37:31.000Z,24.16
2017-12-08T08:37:41.000Z,24.13
2017-12-08T08:37:51.000Z,24.24
2017-12-08T08:38:01.000Z,24.28
2017-12-08T08:38:11.000Z,24.28
2017-12-08T08:38:21.000Z,24.47
2017-12-08T08:38:31.000Z,24.40
2017-12-08T08:38:41.000Z,24.43
2017-12-08T08:38:51.000Z,24.51
2017-12-08T08:39:01.000Z,24.53
2017-12-08T08:39:11.000Z,24.55
2017-12-08T08:39:21.000Z,24.61
2017-12-08T08:39:31.000Z,24.63
2017-12-08T08:39:41.000Z,24.69
2017-12-08T08:39:51.000Z,24.77
2017-12-08T08:40:01.000Z,24.78
2017-12-08T08:40:11.000Z,24.88
2017-12-08T08:40:21.000Z,24.80
2017-12-08T08:40:31.000Z,24.98
2017-12-08T08:40:41.000Z,24.92
2017-12-08T08:40:51.000Z,24.99
2017-12-08T08:41:01.000Z,25.08
2017-12-08T08:41:11.000Z,25.07
2017-12-08T08:41:21.000Z,25.10
2017-12-08T08:41:31.000Z,25.29
2017-12-08T08:41:41.000Z,25.26
2017-12-08T08:41:51.000Z,25.31
2017-12-08T08:42:01.000Z,25.33
2017-12-08T08:42:11.000Z,25.36
2017-12-08T08:42:21.000Z,25.47
2017-12-08T08:42:31.000Z,25.51
2017-12-08T08:42:41.000Z,25.44
2017-12-08T08:42:51.000Z,25.55
2017-12-08T08:43:01.000Z,25.50
2017-12-08T08:43:11.000Z,25.66
2017-12-08T08:43:21.000Z,25.69
2017-12-08T08:43:31.000Z,25.66
2017-12-08T08:43:41.000Z,25.80
2017-12-08T08:43:51.000Z,25.75
2017-12-08T08:44:01.000Z,25.88
2017-12-08T08:44:11.000Z,25.84
2017-12-08T08:44:21.000Z,25.93
2017-12-08T08:44:31.000Z,25.98
2017-12-08T08:44:41.000Z,26.03
2017-12-08T08:44:51.000Z,26.05
2017-12-08T08:45:01.000Z,26.13
2017-12-08T08:45:11.000Z,26.15
2017-12-08T08:45:21.000Z,26.18
2017-12-08T08:45:31.000Z,26.19
2017-12-08T08:45:41.000Z,26.19
2017-12-08T08:45:51.000Z,26.26
2017-12-08T08:46:01.000Z,26.33
2017-12-08T08:46:11.000Z,26.40
2017-12-08T08:46:21.000Z,26.47
2017-12-08T08:46:31.000Z,26.45
2017-12-08T08:46:41.000Z,26.62
2017-12-08T08:46:51.000Z,26.58
2017-12-08T08:47:01.000Z,26.63
2017-12-08T08:47:11.000Z,26.78
2017-12-08T08:47:21.000Z,26.75
2017-12-08T08:47:31.000Z,26.78
2017-12-08T08:47:41.000Z,26.78
2017-12-08T08:47:51.000Z,26.83
2017-12-08T08:48:01.000Z,26.89
2017-12-08T08:48:11.000Z,26.96
2017-12-08T08:48:21.000Z,26.95
2017-12-08T08:48:31.000Z,26.99
2017-12-08T08:48:41.000Z,27.03
2017-12-08T08:48:51.000Z,27.05
2017-12-08T08:49:01.000Z,27.08
2017-12-08T08:49:11.000Z,27.11
2017-12-08T08:49:21.000Z,27.18
2017-12-08T08:49:31.000Z,27.21
2017-12-08T08:49:41.000Z,27.27
2017-12-08T08:49:51.000Z,27.29
2017-12-08T08:50:01.000Z,27.32
2017-12-08T08:50:11.000Z,27.37
2017-12-08T08:50:21.000Z,27.52
2017-12-08T08:50:31.000Z,27.47
2017-12-08T08:50:40.000Z,27.55
2017-12-08T08:50:50.000Z,27.52
2017-12-08T08:51:00.000Z,27.48
2017-12-08T08:51:10.000Z,27.42
2017-12-08T08:51:20.000Z,27.35
2017-12-08T08:51:30.000Z,27.33
2017-12-08T08:51:40.000Z,27.30
2017-12-08T08:51:50.000Z,27.25
2017-12-08T08:52:00.000Z,27.22
2017-12-08T08:52:10.000Z,27.17
2017-12-08T08:52:20.000Z,27.20
2017-12-08T08:52:30.000Z,27.20
2017-12-08T08:52:40.000Z,27.07
2017-12-08T08:52:50.000Z,27.05
2017-12-08T08:53:00.000Z,27.03
2017-12-08T08:53:10.000Z,27.07
2017-12-08T08:53:20.000Z,27.08
2017-12-08T08:53:30.000Z,27.03
2017-12-08T08:53:40.000Z,26.99
2017-12-08T08:53:50.000Z,26.99
2017-12-08T08:54:00.000Z,26.96
2017-12-08T08:54:10.000Z,26.95
2017-12-08T08:54:20.000Z,26.88
2017-12-08T08:54:30.000Z,26.99
2017-12-08T08:54:40.000Z,26.88
2017-12-08T08:54:50.000Z,26.92
2017-12-08T08:55:00.000Z,26.99
2017-12-08T08:55:10.000Z,27.02
2017-12-08T08:55:20.000Z,27.05
2017-12-08T08:55:30.000Z,27.12
2017-12-08T08:55:40.000Z,27.10
2017-12-08T08:55:50.000Z,27.10
2017-12-08T08:56:00.000Z,27.18
2017-12-08T08:56:10.000Z,27.25
2017-12-08T08:56:20.000Z,27.22
2017-12-08T08:56:30.000Z,27.18
2017-12-08T08:56:40.000Z,27.26
2017-12-08T08:56:50.000Z,27.30
2017-12-08T08:57:00.000Z,27.32
2017-12-08T08:57:10.000Z,27.35
2017-12-08T08:57:20.000Z,27.37
2017-12-08T08:57:30.000Z,27.26
2017-12-08T08:57:40.000Z,27.35
2017-12-08T08:57:50.000Z,27.35
2017-12-08T08:58:00.000Z,27.36
2017-12-08T08:58:10.000Z,27.39
2017-12-08T08:58:20.000Z,27.40
2017-12-08T08:58:30.000Z,27.29
2017-12-08T08:58:40.000Z,27.33
2017-12-08T08:58:50.000Z,27.35
2017-12-08T08:59:00.000Z,27.36
2017-12-08T08:59:10.000Z,27.42
2017-12-08T08:59:20.000Z,27.36
2017-12-08T08:59:30.000Z,27.36
2017-12-08T08:59:40.000Z,27.32
2017-12-08T08:59:50.000Z,27.32
2017-12-08T09:00:00.000Z,27.39
2017-12-08T09:00:10.000Z,27.29
2017-12-08T09:00:20.000Z,27.45
2017-12-08T09:00:30.000Z,27.33
2017-12-08T09:00:40.000Z,27.33
2017-12-08T09:00:50.000Z,27.39
2017-12-08T09:01:00.000Z,27.35
2017-12-08T09:01:10.000Z,27.25
2017-12-08T09:01:20.000Z,27.36
2017-12-08T09:01:30.000Z,27.33
2017-12-08T09:01:40.000Z,27.32
2017-12-08T09:01:50.000Z,27.40
2017-12-08T09:02:00.000Z,27.37
2017-12-08T09:02:10.000Z,27.32
2017-12-08T09:02:20.000Z,27.39
2017-12-08T09:02:30.000Z,27.32
2017-12-08T09:02:40.000Z,27.30
2017-12-08T09:02:50.000Z,27.36
2017-12-08T09:03:00.000Z,27.39
2017-12-08T09:03:10.000Z,27.39
2017-12-08T09:03:20.000Z,27.36
2017-12-08T09:03:30.000Z,27.35
2017-12-08T09:03:40.000Z,27.44
2017-12-08T09:03:50.000Z,27.40
2017-12-08T09:04:00.000Z,27.40
2017-12-08T09:04:10.000Z,27.36
2017-12-08T09:04:20.000Z,27.30
2017-12-08T09:04:30.000Z,27.42
2017-12-08T09:04:40.000Z,27.44
2017-12-08T09:04:50.000Z,27.42
2017-12-08T09:05:00.000Z,27.40
2017-12-08T09:05:10.000Z,27.42
2017-12-08T09:05:20.000Z,27.36
2017-12-08T09:05:30.000Z,27.45
2017-12-08T09:05:40.000Z,27.42
2017-12-08T09:05:50.000Z,27.39
2017-12-08T09:06:00.000Z,27.44
2017-12-08T09:06:10.000Z,27.39
2017-12-08T09:06:20.000Z,27.39
2017-12-08T09:06:30.000Z,27.48
2017-12-08T09:06:40.000Z,27.47
2017-12-08T09:06:50.000Z,27.48
2017-12-08T09:07:00.000Z,27.40
2017-12-08T09:07:10.000Z,27.45
2017-12-08T09:07:20.000Z,27.49
2017-12-08T09:07:30.000Z,27.49
2017-12-08T09:07:40.000Z,27.40
2017-12-08T09:07:50.000Z,27.52
2017-12-08T09:08:00.000Z,27.52
2017-12-08T09:08:10.000Z,27.47
2017-12-08T09:08:20.000Z,27.49
2017-12-08T09:08:30.000Z,27.54
2017-12-08T09:08:40.000Z,27.51
2017-12-08T09:08:49.000Z,27.51
2017-12-08T09:09:00.000Z,27.51
2017-12-08T09:09:10.000Z,27.47
2017-12-08T09:09:19.000Z,27.54
2017-12-08T09:09:30.000Z,27.64
2017-12-08T09:09:39.000Z,27.59
2017-12-08T09:09:50.000Z,27.64
2017-12-08T09:09:59.000Z,27.63
2017-12-08T09:10:09.000Z,27.59
2017-12-08T09:10:19.000Z,27.58
2017-12-08T09:10:29.000Z,27.60
2017-12-08T09:10:39.000Z,27.64
2017-12-08T09:10:49.000Z,27.67
2017-12-08T09:10:59.000Z,27.65
2017-12-08T09:11:09.000Z,27.64
2017-12-08T09:11:19.000Z,27.70
2017-12-08T09:11:29.000Z,27.68
2017-12-08T09:11:39.000Z,27.67
2017-12-08T09:11:49.000Z,27.65
2017-12-08T09:11:59.000Z,27.68
2017-12-08T09:12:09.000Z,27.65
2017-12-08T09:12:19.000Z,27.68
2017-12-08T09:12:29.000Z,27.71
2017-12-08T09:12:39.000Z,27.70
2017-12-08T09:12:49.000Z,27.67
2017-12-08T09:12:59.000Z,27.67
2017-12-08T09:13:09.000Z,27.70
2017-12-08T09:13:19.000Z,27.73
2017-12-08T09:13:29.000Z,27.75
2017-12-08T09:13:39.000Z,27.78
2017-12-08T09:13:49.000Z,27.74
2017-12-08T09:13:59.000Z,27.78
2017-12-08T09:14:09.000Z,27.85
2017-12-08T09:14:19.000Z,27.75
2017-12-08T09:14:29.000Z,27.80
2017-12-08T09:14:39.000Z,27.75
2017-12-08T09:14:49.000Z,27.77
2017-12-08T09:14:59.000Z,27.82
2017-12-08T09:15:09.000Z,27.89
2017-12-08T09:15:19.000Z,27.73
2017-12-08T09:15:29.000Z,27.73
2017-12-08T09:15:39.000Z,27.83
2017-12-08T09:15:49.000Z,27.82
2017-12-08T09:15:59.000Z,27.85
2017-12-08T09:16:09.000Z,27.82
2017-12-08T09:16:19.000Z,27.80
2017-12-08T09:16:29.000Z,27.77
2017-12-08T09:16:39.000Z,27.89
2017-12-08T09:16:49.000Z,27.80
2017-12-08T09:16:59.000Z,27.85
2017-12-08T09:17:09.000Z,27.85
2017-12-08T09:17:19.000Z,27.85
2017-12-08T09:17:29.000Z,27.87
2017-12-08T09:17:39.000Z,27.85
2017-12-08T09:17:49.000Z,27.92
2017-12-08T09:17:59.000Z,27.87
2017-12-08T09:18:09.000Z,27.92
2017-12-08T09:18:19.000Z,27.85
2017-12-08T09:18:29.000Z,27.95
2017-12-08T09:18:39.000Z,27.85
2017-12-08T09:18:49.000Z,27.95
2017-12-08T09:18:59.000Z,27.92
2017-12-08T09:19:09.000Z,27.92
2017-12-08T09:19:19.000Z,27.95
2017-12-08T09:19:29.000Z,27.96
2017-12-08T09:19:39.000Z,27.92
2017-12-08T09:19:49.000Z,27.98
2017-12-08T09:19:59.000Z,27.93
2017-12-08T09:20:09.000Z,27.92
2017-12-08T09:20:19.000Z,27.92
2017-12-08T09:20:29.000Z,27.89
2017-12-08T09:20:39.000Z,27.93
2017-12-08T09:20:49.000Z,27.90
2017-12-08T09:20:59.000Z,27.92
2017-12-08T09:21:09.000Z,27.96
2017-12-08T09:21:19.000Z,28.02
2017-12-08T09:21:29.000Z,27.96
2017-12-08T09:21:39.000Z,27.93
2017-12-08T09:21:49.000Z,28.01
2017-12-08T09:21:59.000Z,27.96
2017-12-08T09:22:09.000Z,27.96
2017-12-08T09:22:19.000Z,27.92
2017-12-08T09:22:29.000Z,27.98
2017-12-08T09:22:39.000Z,28.01
2017-12-08T09:22:49.000Z,28.00
2017-12-08T09:22:59.000Z,27.96
2017-12-08T09:23:09.000Z,28.01
2017-12-08T09:23:19.000Z,27.98
2017-12-08T09:23:29.000Z,27.98
2017-12-08T09:23:39.000Z,28.01
2017-12-08T09:23:49.000Z,28.02
2017-12-08T09:23:59.000Z,27.95
2017-12-08T09:24:09.000Z,28.07
2017-12-08T09:24:19.000Z,27.98
2017-12-08T09:24:29.000Z,28.00
2017-12-08T09:24:39.000Z,27.98
2017-12-08T09:24:49.000Z,28.01
2017-12-08T09:24:59.000Z,27.98
2017-12-08T09:25:09.000Z,28.01
2017-12-08T09:25:19.000Z,28.00
2017-12-08T09:25:29.000Z,28.02
2017-12-08T09:25:39.000Z,28.05
2017-12-08T09:25:49.000Z,28.02
2017-12-08T09:25:59.000Z,28.10
2017-12-08T09:26:09.000Z,27.95
2017-12-08T09:26:19.000Z,28.04
2017-12-08T09:26:29.000Z,28.05
2017-12-08T09:26:39.000Z,28.01
2017-12-08T09:26:49.000Z,28.11
2017-12-08T09:26:59.000Z,28.07
2017-12-08T09:27:09.000Z,28.11
2017-12-08T09:27:19.000Z,28.04
2017-12-08T09:27:29.000Z,28.01
2017-12-08T09:27:39.000Z,28.12
2017-12-08T09:27:49.000Z,28.08
2017-12-08T09:27:59.000Z,28.08
2017-12-08T09:28:09.000Z,28.11
2017-12-08T09:28:19.000Z,28.05
2017-12-08T09:28:29.000Z,28.10
2017-12-08T09:28:39.000Z,28.12
2017-12-08T09:28:49.000Z,28.05
2017-12-08T09:28:59.000Z,28.10
2017-12-08T09:29:09.000Z,28.01
2017-12-08T09:29:19.000Z,28.10
2017-12-08T09:29:29.000Z,28.05
2017-12-08T09:29:39.000Z,28.12
2017-12-08T09:29:49.000Z,28.08
2017-12-08T09:29:59.000Z,28.04
2017-12-08T09:30:09.000Z,28.14
2017-12-08T09:30:19.000Z,28.08
2017-12-08T09:30:29.000Z,28.12
2017-12-08T09:30:39.000Z,28.11
2017-12-08T09:30:49.000Z,28.19
2017-12-08T09:30:59.000Z,28.10
2017-12-08T09:31:09.000Z,28.11
2017-12-08T09:31:19.000Z,28.15
2017-12-08T09:31:29.000Z,28.19
2017-12-08T09:31:39.000Z,28.12
2017-12-08T09:31:49.000Z,28.14
2017-12-08T09:31:59.000Z,28.22
2017-12-08T09:32:09.000Z,28.23
2017-12-08T09:32:19.000Z,28.23
2017-12-08T09:32:29.000Z,28.23
2017-12-08T09:32:39.000Z,28.23
2017-12-08T09:32:49.000Z,28.23
2017-12-08T09:32:59.000Z,28.22
2017-12-08T09:33:09.000Z,28.26
2017-12-08T09:33:19.000Z,28.25
2017-12-08T09:33:29.000Z,28.23
2017-12-08T09:33:39.000Z,28.23
2017-12-08T09:33:49.000Z,28.20
2017-12-08T09:33:59.000Z,28.17
2017-12-08T09:34:09.000Z,28.23
2017-12-08T09:34:19.000Z,28.22
2017-12-08T09:34:29.000Z,28.26
2017-12-08T09:34:39.000Z,28.22
2017-12-08T09:34:49.000Z,28.27
2017-12-08T09:34:59.000Z,28.27
2017-12-08T09:35:09.000Z,28.26
2017-12-08T09:35:19.000Z,28.25
2017-12-08T09:35:29.000Z,28.27
2017-12-08T09:35:39.000Z,28.25
2017-12-08T09:35:49.000Z,28.29
2017-12-08T09:35:59.000Z,28.26
2017-12-08T09:36:09.000Z,28.29
2017-12-08T09:36:19.000Z,28.27
2017-12-08T09:36:29.000Z,28.30
2017-12-08T09:36:39.000Z,28.25
2017-12-08T09:36:49.000Z,28.22
2017-12-08T09:36:59.000Z,28.29
2017-12-08T09:37:09.000Z,28.29
2017-12-08T09:37:19.000Z,28.30
2017-12-08T09:37:29.000Z,28.29
2017-12-08T09:37:39.000Z,28.22
2017-12-08T09:37:49.000Z,28.26
2017-12-08T09:37:59.000Z,28.26
2017-12-08T09:38:09.000Z,28.30
2017-12-08T09:38:19.000Z,28.29
2017-12-08T09:38:29.000Z,28.27
2017-12-08T09:38:39.000Z,28.30
2017-12-08T09:38:49.000Z,28.26
2017-12-08T09:38:59.000Z,28.29
2017-12-08T09:39:09.000Z,28.29
2017-12-08T09:39:19.000Z,28.26
2017-12-08T09:39:29.000Z,28.25
2017-12-08T09:39:39.000Z,28.30
2017-12-08T09:39:49.000Z,28.29
2017-12-08T09:39:59.000Z,28.23
2017-12-08T09:40:09.000Z,28.29
2017-12-08T09:40:19.000Z,28.27
2017-12-08T09:40:29.000Z,28.29
2017-12-08T09:40:39.000Z,28.29
2017-12-08T09:40:49.000Z,28.27
2017-12-08T09:40:59.000Z,28.29
2017-12-08T09:41:09.000Z,28.26
2017-12-08T09:41:19.000Z,28.29
2017-12-08T09:41:29.000Z,28.38
2017-12-08T09:41:39.000Z,28.23
2017-12-08T09:41:49.000Z,28.33
2017-12-08T09:41:59.000Z,28.29
2017-12-08T09:42:09.000Z,28.30
2017-12-08T09:42:19.000Z,28.33
2017-12-08T09:42:29.000Z,28.25
2017-12-08T09:42:39.000Z,28.32
2017-12-08T09:42:49.000Z,28.26
2017-12-08T09:42:59.000Z,28.32
2017-12-08T09:43:09.000Z,28.27
2017-12-08T09:43:19.000Z,28.35
2017-12-08T09:43:29.000Z,28.29
2017-12-08T09:43:39.000Z,28.32
2017-12-08T09:43:49.000Z,28.26
2017-12-08T09:43:59.000Z,28.30
2017-12-08T09:44:09.000Z,28.25
2017-12-08T09:44:19.000Z,28.29
2017-12-08T09:44:29.000Z,28.30
2017-12-08T09:44:39.000Z,28.30
2017-12-08T09:44:49.000Z,28.38
2017-12-08T09:44:59.000Z,28.30
2017-12-08T09:45:09.000Z,28.32
2017-12-08T09:45:19.000Z,28.30
2017-12-08T09:45:29.000Z,28.27
2017-12-08T09:45:39.000Z,28.33
2017-12-08T09:45:49.000Z,28.32
2017-12-08T09:45:59.000Z,28.29
2017-12-08T09:46:09.000Z,28.27
2017-12-08T09:46:19.000Z,28.27
2017-12-08T09:46:29.000Z,28.30
2017-12-08T09:46:39.000Z,28.33
2017-12-08T09:46:49.000Z,28.26
2017-12-08T09:46:59.000Z,28.27
2017-12-08T09:47:09.000Z,28.33
2017-12-08T09:47:19.000Z,28.33
2017-12-08T09:47:29.000Z,28.30
2017-12-08T09:47:39.000Z,28.33
2017-12-08T09:47:49.000Z,28.32
2017-12-08T09:47:59.000Z,28.32
2017-12-08T09:48:09.000Z,28.33
2017-12-08T09:48:19.000Z,28.30
2017-12-08T09:48:29.000Z,28.35
2017-12-08T09:48:39.000Z,28.35
2017-12-08T09:48:49.000Z,28.35
2017-12-08T09:48:59.000Z,28.35
2017-12-08T09:49:09.000Z,28.41
2017-12-08T09:49:19.000Z,28.38
2017-12-08T09:49:29.000Z,28.39
2017-12-08T09:49:39.000Z,28.42
2017-12-08T09:49:49.000Z,28.41
2017-12-08T09:49:59.000Z,28.49
2017-12-08T09:50:09.000Z,28.51
2017-12-08T09:50:19.000Z,28.48
2017-12-08T09:50:29.000Z,28.44
2017-12-08T09:50:39.000Z,28.47
2017-12-08T09:50:49.000Z,28.44
2017-12-08T09:50:59.000Z,28.45
2017-12-08T09:51:09.000Z,28.48
2017-12-08T09:51:19.000Z,28.45
2017-12-08T09:51:29.000Z,28.49
2017-12-08T09:51:39.000Z,28.44
2017-12-08T09:51:49.000Z,28.54
2017-12-08T09:51:59.000Z,28.44
2017-12-08T09:52:09.000Z,28.48
2017-12-08T09:52:19.000Z,28.52
2017-12-08T09:52:29.000Z,28.49
2017-12-08T09:52:39.000Z,28.51
2017-12-08T09:52:49.000Z,28.56
2017-12-08T09:52:59.000Z,28.51
2017-12-08T09:53:09.000Z,28.59
2017-12-08T09:53:19.000Z,28.56
2017-12-08T09:53:29.000Z,28.56
2017-12-08T09:53:39.000Z,28.64
2017-12-08T09:53:49.000Z,28.62
2017-12-08T09:53:59.000Z,28.64
2017-12-08T09:54:09.000Z,28.56
2017-12-08T09:54:19.000Z,28.57
2017-12-08T09:54:29.000Z,28.63
2017-12-08T09:54:39.000Z,28.62
2017-12-08T09:54:49.000Z,28.59
2017-12-08T09:54:59.000Z,28.60
2017-12-08T09:55:09.000Z,28.59
2017-12-08T09:55:19.000Z,28.62
2017-12-08T09:55:29.000Z,28.64
2017-12-08T09:55:39.000Z,28.62
2017-12-08T09:55:49.000Z,28.57
2017-12-08T09:55:59.000Z,28.66
2017-12-08T09:56:09.000Z,28.60
2017-12-08T09:56:19.000Z,28.59
2017-12-08T09:56:29.000Z,28.52
2017-12-08T09:56:39.000Z,28.63
2017-12-08T09:56:49.000Z,28.63
2017-12-08T09:56:59.000Z,28.63
2017-12-08T09:57:09.000Z,28.56
2017-12-08T09:57:19.000Z,28.60
2017-12-08T09:57:29.000Z,28.57
2017-12-08T09:57:39.000Z,28.62
2017-12-08T09:57:49.000Z,28.60
2017-12-08T09:57:59.000Z,28.63
2017-12-08T09:58:09.000Z,28.63
2017-12-08T09:58:19.000Z,28.64
2017-12-08T09:58:29.000Z,28.62
2017-12-08T09:58:39.000Z,28.62
2017-12-08T09:58:49.000Z,28.52
2017-12-08T09:58:59.000Z,28.60
2017-12-08T09:59:09.000Z,28.60
2017-12-08T09:59:19.000Z,28.60
2017-12-08T09:59:29.000Z,28.59
2017-12-08T09:59:39.000Z,28.54
2017-12-08T09:59:49.000Z,28.62
2017-12-08T09:59:59.000Z,28.56
2017-12-08T10:00:09.000Z,28.56
2017-12-08T10:00:19.000Z,28.64
2017-12-08T10:00:29.000Z,28.63
2017-12-08T10:00:39.000Z,28.57
2017-12-08T10:00:49.000Z,28.60
2017-12-08T10:00:59.000Z,28.59
2017-12-08T10:01:09.000Z,28.62
2017-12-08T10:01:19.000Z,28.57
2017-12-08T10:01:29.000Z,28.63
2017-12-08T10:01:39.000Z,28.52
2017-12-08T10:01:49.000Z,28.63
2017-12-08T10:01:59.000Z,28.60
2017-12-08T10:02:09.000Z,28.62
2017-12-08T10:02:19.000Z,28.67
2017-12-08T10:02:29.000Z,28.54
2017-12-08T10:02:39.000Z,28.62
2017-12-08T10:02:49.000Z,28.59
2017-12-08T10:02:59.000Z,28.52
2017-12-08T10:03:09.000Z,28.59
2017-12-08T10:03:19.000Z,28.60
2017-12-08T10:03:29.000Z,28.59
2017-12-08T10:03:39.000Z,28.57
2017-12-08T10:03:49.000Z,28.63
2017-12-08T10:03:59.000Z,28.57
2017-12-08T10:04:09.000Z,28.64
2017-12-08T10:04:19.000Z,28.59
2017-12-08T10:04:29.000Z,28.60
2017-12-08T10:04:39.000Z,28.62
2017-12-08T10:04:49.000Z,28.57
2017-12-08T10:04:59.000Z,28.60
2017-12-08T10:05:09.000Z,28.62
2017-12-08T10:05:19.000Z,28.63
2017-12-08T10:05:29.000Z,28.57
2017-12-08T10:05:39.000Z,28.63
2017-12-08T10:05:49.000Z,28.56
2017-12-08T10:05:59.000Z,28.52
2017-12-08T10:06:09.000Z,28.54
2017-12-08T10:06:19.000Z,28.49
2017-12-08T10:06:29.000Z,28.54
2017-12-08T10:06:39.000Z,28.62
2017-12-08T10:06:49.000Z,28.64
2017-12-08T10:06:59.000Z,28.54
2017-12-08T10:07:09.000Z,28.57
2017-12-08T10:07:19.000Z,28.52
2017-12-08T10:07:29.000Z,28.54
2017-12-08T10:07:39.000Z,28.62
2017-12-08T10:07:49.000Z,28.56
2017-12-08T10:07:59.000Z,28.63
2017-12-08T10:08:09.000Z,28.59
2017-12-08T10:08:19.000Z,28.60
2017-12-08T10:08:29.000Z,28.62
2017-12-08T10:08:39.000Z,28.63
2017-12-08T10:08:49.000Z,28.56
2017-12-08T10:08:59.000Z,28.63
2017-12-08T10:09:09.000Z,28.60
2017-12-08T10:09:19.000Z,28.54
2017-12-08T10:09:29.000Z,28.63
2017-12-08T10:09:39.000Z,28.51
2017-12-08T10:09:49.000Z,28.54
2017-12-08T10:09:59.000Z,28.62
2017-12-08T10:10:09.000Z,28.52
2017-12-08T10:10:19.000Z,28.57
2017-12-08T10:10:29.000Z,28.56
2017-12-08T10:10:39.000Z,28.60
2017-12-08T10:10:49.000Z,28.57
2017-12-08T10:10:59.000Z,28.54
2017-12-08T10:11:09.000Z,28.57
2017-12-08T10:11:19.000Z,28.60
2017-12-08T10:11:29.000Z,28.60
2017-12-08T10:11:39.000Z,28.64
2017-12-08T10:11:49.000Z,28.67
2017-12-08T10:11:59.000Z,28.60
2017-12-08T10:12:09.000Z,28.60
2017-12-08T10:12:19.000Z,28.59
2017-12-08T10:12:29.000Z,28.57
2017-12-08T10:12:39.000Z,28.60
2017-12-08T10:12:49.000Z,28.63
2017-12-08T10:12:59.000Z,28.60
2017-12-08T10:13:09.000Z,28.64
2017-12-08T10:13:19.000Z,28.63
2017-12-08T10:13:29.000Z,28.62
2017-12-08T10:13:39.000Z,28.62
2017-12-08T10:13:49.000Z,28.60
2017-12-08T10:13:59.000Z,28.52
2017-12-08T10:14:09.000Z,28.67
2017-12-08T10:14:19.000Z,28.62
2017-12-08T10:14:29.000Z,28.62
2017-12-08T10:14:39.000Z,28.59
2017-12-08T10:14:49.000Z,28.66
2017-12-08T10:14:59.000Z,28.54
2017-12-08T10:15:09.000Z,28.59
2017-12-08T10:15:19.000Z,28.60
2017-12-08T10:15:29.000Z,28.62
2017-12-08T10:15:39.000Z,28.59
2017-12-08T10:15:49.000Z,28.66
2017-12-08T10:15:59.000Z,28.66
2017-12-08T10:16:09.000Z,28.72
2017-12-08T10:16:19.000Z,28.56
2017-12-08T10:16:29.000Z,28.60
2017-12-08T10:16:39.000Z,28.62
2017-12-08T10:16:49.000Z,28.67
2017-12-08T10:16:59.000Z,28.69
2017-12-08T10:17:09.000Z,28.62
2017-12-08T10:17:19.000Z,28.70
2017-12-08T10:17:29.000Z,28.66